Latest Coastal Weather Observations for Kingscote

IDS60701

Issued at 9:55 pm CST Monday 21 April 2014 (issued every 10 minutes, with the page automatically refreshed every 10 minutes)

About coastal observations | Map of coastal stations | Coastal observations for SA | Marine services | Other Formats
Station Details ID: 022841 Name: KINGSCOTE AERO Lat: -35.71 Lon: 137.52 Height: 6.23 m
Data from the previous 72 hours. | See also: Recent months at Kingscote
Date/Time
CST
Temp

°C
Wind Pressure Rain
since 9am
mm
Weather Cloud Vis
km
Sea
Height
m
Swell
Dir
 
Speed
knots
Gust
knots
hPa Trend Height
m
Period
s
Dir
21/09:30pm 17.5 ESE 5 7 1011.4 - 0.2 - Partly cloudy 10 - - - -
21/09:00pm 18.2 SW 7 11 1012.4 - 0.0 - Cloudy 8 - - - -
21/08:33pm 18.2 SW 15 22 1011.8 - 0.0 - Partly cloudy 9 - - - -
21/08:30pm 18.2 NE 6 9 1010.8 - 0.0 - Partly cloudy 9 - - - -
21/08:00pm 18.9 E 5 8 1010.7 - 0.0 - Partly cloudy 10 - - - -
21/07:30pm 20.0 SSW 7 10 1011.0 - 0.0 - Partly cloudy 10 - - - -
21/07:00pm 20.2 SW 8 11 1010.9 - 0.0 - - 10 - - - -
21/06:30pm 20.9 W 7 10 1010.6 - 0.0 - Partly cloudy 10 - - - -
21/06:00pm 21.5 WSW 9 13 1009.3 - 0.0 - Mostly cloudy 10 - - - -
21/05:30pm 22.1 WNW 11 16 1009.2 - 0.0 - Partly cloudy 10 - - - -
21/05:00pm 22.7 W 9 13 1009.6 - 0.0 - Partly cloudy 10 - - - -
21/04:30pm 23.2 NW 11 15 1009.2 - 0.0 - - 10 - - - -
21/04:00pm 23.8 WNW 13 19 1009.1 - 0.0 - Partly cloudy 10 - - - -
21/03:30pm 23.9 WNW 13 19 1009.4 - 0.0 - - 10 - - - -
21/03:17pm 24.2 WNW 17 27 1009.3 - 0.0 - Partly cloudy 10 - - - -
21/03:00pm 24.9 NW 16 22 1009.2 - 0.0 - - 10 - - - -
21/02:30pm 24.1 W 15 21 1009.4 - 0.0 - Partly cloudy 10 - - - -
21/02:05pm 24.8 WNW 21 31 1009.4 - 0.0 - - 10 - - - -
21/02:00pm 25.3 WNW 20 27 1009.4 - 0.0 - - 10 - - - -
21/01:51pm 26.2 W 22 26 1009.5 - 0.0 - - 10 - - - -
21/01:36pm 27.7 NW 19 29 1009.4 - 0.0 - - 10 - - - -
21/01:30pm 27.6 WNW 20 29 1009.4 - 0.0 - - 10 - - - -
21/01:12pm 27.5 NW 16 26 1009.4 - 0.0 - - 10 - - - -
21/01:00pm 26.5 NW 15 23 1009.2 - 0.0 - Partly cloudy 10 - - - -
21/12:30pm 25.6 NW 17 25 1010.0 - 0.0 - - 10 - - - -
21/12:00pm 26.2 NW 19 26 1010.3 - 0.0 - - 10 - - - -
21/11:38am 26.8 NW 20 30 1010.5 - 0.0 - - 10 - - - -
21/11:30am 27.0 NW 21 30 1010.6 - 0.0 - - 10 - - - -
21/11:00am 25.6 NW 17 27 1010.8 - 0.0 - - 10 - - - -
21/10:30am 23.9 NW 17 23 1011.0 - 0.0 - - 10 - - - -
21/10:00am 23.9 NNW 18 27 1010.8 - 0.0 - - 10 - - - -
21/09:30am 22.8 NNW 13 21 1011.0 - 0.0 - - 10 - - - -
21/09:14am 22.4 NNW 15 25 1011.1 - 0.0 - - 10 - - - -
21/09:00am 22.1 NNW 14 21 1011.1 - 0.0 - - 10 - - - -
21/08:30am 20.7 N 14 21 1011.2 - 0.0 - - 10 - - - -
21/08:00am 19.6 N 12 18 1011.1 - 0.0 - - 10 - - - -
21/07:30am 18.8 N 8 13 1011.1 - 0.0 - - 10 - - - -
21/07:00am 18.7 N 11 18 1011.0 - 0.0 - - 10 - - - -
21/06:30am 18.8 N 8 14 1011.4 - 0.0 - - 10 - - - -
21/06:00am 17.5 NE 6 8 1011.9 - 0.0 - - 10 - - - -
21/05:30am 18.5 NNE 6 11 1012.3 - 0.0 - - 10 - - - -
21/05:00am 18.3 NNE 7 10 1012.1 - 0.0 - - 10 - - - -
21/04:30am 18.5 NNE 9 15 1011.9 - 0.0 - - 10 - - - -
21/04:00am 18.1 NNE 10 16 1011.7 - 0.0 - - 10 - - - -
21/03:30am 18.0 N 11 17 1012.2 - 0.0 - - 10 - - - -
21/03:00am 18.1 NNE 10 15 1012.6 - 0.0 - - 10 - - - -
21/02:30am 17.9 NE 9 12 1013.1 - 0.0 - Partly cloudy 10 - - - -
21/02:00am 17.2 NE 9 11 1013.6 - 0.0 - - 10 - - - -
21/01:30am 16.8 NE 8 10 1014.3 - 0.0 - Partly cloudy 10 - - - -
21/01:00am 16.2 NE 5 6 1014.6 - 0.0 - - 10 - - - -
21/12:30am 16.2 NE 7 8 1015.0 - 0.0 - Partly cloudy 10 - - - -
21/12:00am 16.9 NNE 7 9 1015.4 - 0.0 - Mostly cloudy 10 - - - -
 
Date/Time
CST
Temp

°C
Wind Pressure Rain
since 9am
mm
Weather Cloud Vis
km
Sea
Height
m
Swell
Dir
 
Speed
knots
Gust
knots
hPa Trend Height
m
Period
s
Dir
20/11:30pm 16.5 NNE 7 9 1015.5 - 0.0 - Partly cloudy 10 - - - -
20/11:00pm 16.3 ENE 6 8 1015.8 - 0.0 - Partly cloudy 10 - - - -
20/10:30pm 16.0 ENE 6 9 1016.4 - 0.0 - Partly cloudy 10 - - - -
20/10:00pm 15.6 E 5 7 1016.4 - 0.0 - - 10 - - - -
20/09:30pm 15.7 E 7 8 1016.9 - 0.0 - - 10 - - - -
20/09:00pm 15.5 ESE 5 6 1017.4 - 0.0 - Partly cloudy 10 - - - -
20/08:30pm 16.1 E 4 4 1017.7 - 0.0 - Partly cloudy 10 - - - -
20/08:00pm 16.1 E 5 6 1017.7 - 0.0 - Partly cloudy 10 - - - -
20/07:30pm 16.7 ESE 5 6 1017.8 - 0.0 - Partly cloudy 10 - - - -
20/07:00pm 17.1 SE 5 7 1017.8 - 0.0 - Partly cloudy 10 - - - -
20/06:30pm 18.0 SSE 6 8 1017.5 - 0.0 - Partly cloudy 10 - - - -
20/06:00pm 18.3 SE 5 6 1017.2 - 0.0 - Cloudy 10 - - - -
20/05:30pm 18.9 SSE 5 6 1017.1 - 0.0 - Partly cloudy 10 - - - -
20/05:00pm 19.0 SSE 7 8 1017.1 - 0.0 - Partly cloudy 10 - - - -
20/04:30pm 19.4 S 8 11 1016.7 - 0.0 - Partly cloudy 10 - - - -
20/04:00pm 20.1 S 10 11 1016.7 - 0.0 - Partly cloudy 10 - - - -
20/03:30pm 21.0 WNW 10 13 1016.7 - 0.0 - Partly cloudy 10 - - - -
20/03:00pm 21.3 W 9 12 1016.7 - 0.0 - Cloudy 10 - - - -
20/02:30pm 21.5 W 10 16 1016.4 - 0.0 - Partly cloudy 10 - - - -
20/02:00pm 21.9 W 11 16 1016.3 - 0.0 - Partly cloudy 10 - - - -
20/01:30pm 21.5 W 11 21 1016.6 - 0.0 - Partly cloudy 10 - - - -
20/01:00pm 22.3 WNW 15 20 1016.8 - 0.0 - Partly cloudy 10 - - - -
20/12:30pm 21.9 WNW 15 21 1017.1 - 0.0 - Partly cloudy 10 - - - -
20/12:00pm 21.5 NW 14 22 1017.4 - 0.0 - Partly cloudy 10 - - - -
20/11:30am 21.6 NW 13 18 1017.6 - 0.0 - - 10 - - - -
20/11:00am 21.4 WNW 13 16 1017.8 - 0.0 - Partly cloudy 10 - - - -
20/10:30am 20.1 NW 14 17 1018.1 - 0.0 - Partly cloudy 10 - - - -
20/10:00am 18.8 W 13 15 1018.2 - 0.0 - Partly cloudy 10 - - - -
20/09:30am 19.5 WNW 11 16 1018.3 - 0.0 - Partly cloudy 10 - - - -
20/09:00am 17.6 CALM 0 0 1018.5 - 0.0 - Partly cloudy 10 - - - -
20/08:30am 15.2 CALM 0 0 1018.6 - 0.0 - Partly cloudy 10 - - - -
20/08:00am 12.6 S 1 4 1018.3 - 0.0 - Cloudy 10 - - - -
20/07:30am 11.0 CALM 0 0 1017.8 - 0.0 - Partly cloudy 10 - - - -
20/07:00am 9.3 CALM 0 0 1017.7 - 0.0 - - 10 - - - -
20/06:30am 10.0 CALM 0 3 1017.2 - 0.0 - Cloudy 10 - - - -
20/06:00am 9.3 CALM 0 5 1017.4 - 0.0 - Mostly cloudy 10 - - - -
20/05:30am 8.6 CALM 0 0 1017.0 - 0.0 - Partly cloudy 10 - - - -
20/05:00am 8.4 CALM 0 0 1016.9 - 0.0 - Cloudy 10 - - - -
20/04:30am 7.1 CALM 0 0 1016.8 - 0.0 - Partly cloudy 10 - - - -
20/04:00am 8.1 CALM 0 0 1017.0 - 0.0 - Partly cloudy 10 - - - -
20/03:30am 8.3 SW 2 4 1016.9 - 0.0 - - 10 - - - -
20/03:00am 8.7 SW 2 3 1016.9 - 0.0 - Mostly clear 10 - - - -
20/02:30am 9.7 SW 3 4 1017.0 - 0.0 - - 10 - - - -
20/02:00am 10.4 SW 3 4 1017.1 - 0.0 - - 10 - - - -
20/01:30am 11.7 WSW 4 5 1017.2 - 0.0 - Partly cloudy 10 - - - -
20/01:00am 13.5 NW 6 7 1017.2 - 0.0 - Cloudy 10 - - - -
20/12:30am 14.1 NW 5 6 1017.2 - 0.0 - Cloudy 10 - - - -
20/12:00am 13.9 WNW 6 8 1017.4 - 0.0 - Cloudy 10 - - - -
 
Date/Time
CST
Temp

°C
Wind Pressure Rain
since 9am
mm
Weather Cloud Vis
km
Sea
Height
m
Swell
Dir
 
Speed
knots
Gust
knots
hPa Trend Height
m
Period
s
Dir
19/11:30pm 14.4 N 5 6 1017.4 - 0.0 - Cloudy 10 - - - -
19/11:00pm 14.1 N 3 5 1017.8 - 0.0 - Cloudy 10 - - - -
19/10:30pm 14.4 NNW 4 5 1018.1 - 0.0 - Cloudy 10 - - - -
19/10:00pm 14.5 NNW 4 6 1018.5 - 0.0 - Cloudy 10 - - - -
19/09:30pm 13.9 WSW 4 8 1018.5 - 0.0 - Cloudy 10 - - - -
19/09:00pm 13.7 S 4 5 1018.4 - 0.0 - Mostly cloudy 10 - - - -
19/08:30pm 14.0 SW 4 4 1018.5 - 0.0 - Cloudy 10 - - - -
19/08:00pm 14.7 W 5 6 1018.5 - 0.0 - Cloudy 10 - - - -
19/07:30pm 15.1 W 6 7 1018.4 - 0.0 - Cloudy 10 - - - -
19/07:00pm 15.5 W 5 6 1018.3 - 0.0 - Cloudy 10 - - - -
19/06:30pm 15.8 W 5 7 1018.2 - 0.0 - Partly cloudy 10 - - - -
19/06:00pm 15.9 W 5 6 1018.2 - 0.0 - Mostly cloudy 10 - - - -
19/05:30pm 17.0 NW 8 12 1018.0 - 0.0 - Cloudy 10 - - - -
19/05:00pm 17.2 NW 6 10 1017.9 - 0.0 - Cloudy 10 - - - -
19/04:30pm 18.1 NW 11 14 1018.0 - 0.0 - Cloudy 10 - - - -
19/04:00pm 18.7 NW 12 16 1018.1 - 0.0 - Cloudy 10 - - - -
19/03:30pm 20.4 NNW 5 10 1018.5 - 0.0 - Partly cloudy 10 - - - -
19/03:00pm 20.3 ESE 8 12 1018.6 - 0.0 - Cloudy 10 - - - -
19/02:30pm 19.5 S 4 8 1018.7 - 0.0 - Cloudy 10 - - - -
19/02:00pm 19.5 E 10 15 1018.9 - 0.0 - Cloudy 10 - - - -
19/01:30pm 18.8 ENE 7 10 1019.4 - 0.0 - Cloudy 10 - - - -
19/01:00pm 18.8 SW 4 6 1019.9 - 0.0 - Cloudy 10 - - - -
19/12:30pm 19.1 W 7 11 1020.6 - 0.0 - Cloudy 10 - - - -
19/12:00pm 19.6 NNW 5 14 1021.0 - 0.0 - Mostly cloudy 10 - - - -
19/11:30am 17.5 NNW 7 10 1021.7 - 0.0 - Cloudy 10 - - - -
19/11:00am 18.1 NE 4 5 1022.0 - 0.0 - Cloudy 10 - - - -
19/10:30am 17.5 NNW 4 7 1022.3 - 0.0 - Cloudy 10 - - - -
19/10:00am 17.2 SW 5 9 1022.6 - 0.0 - Cloudy 10 - - - -
19/09:30am 17.1 W 5 8 1022.9 - 0.0 - Cloudy 10 - - - -
19/09:00am 15.8 SW 6 7 1023.0 - 0.0 - Mostly cloudy 10 - - - -
19/08:30am 13.0 CALM 0 0 1023.1 - 0.0 - Cloudy 10 - - - -
19/08:00am 11.4 CALM 0 0 1023.0 - 0.0 - Cloudy 10 - - - -
19/07:30am 10.0 CALM 0 0 1022.7 - 0.0 - Cloudy 10 - - - -
19/07:00am 8.9 CALM 0 0 1022.5 - 0.0 - Cloudy 10 - - - -
19/06:30am 8.1 CALM 0 0 1022.5 - 0.0 - Cloudy 10 - - - -
19/06:00am 7.3 CALM 0 0 1022.4 - 0.0 - Cloudy 10 - - - -
19/05:30am 6.6 CALM 0 0 1022.4 - 0.0 - Cloudy 10 - - - -
19/05:00am 6.6 CALM 0 0 1022.4 - 0.0 - - 10 - - - -
19/04:30am 6.7 CALM 0 0 1022.2 - 0.0 - - 10 - - - -
19/04:00am 8.7 CALM 0 0 1022.2 - 0.0 - Partly cloudy 10 - - - -
19/03:30am 8.8 CALM 0 0 1022.3 - 0.0 - Partly cloudy 10 - - - -
19/03:00am 10.0 CALM 0 0 1022.4 - 0.0 - Partly cloudy 10 - - - -
19/02:30am 10.7 CALM 0 0 1022.5 - 0.0 - Cloudy 10 - - - -
19/02:00am 10.8 CALM 0 0 1022.8 - 0.0 - Cloudy 10 - - - -
19/01:30am 10.2 CALM 0 0 1023.0 - 0.0 - Cloudy 10 - - - -
19/01:00am 9.8 CALM 0 0 1023.1 - 0.0 - Cloudy 10 - - - -
19/12:30am 8.7 CALM 0 0 1023.3 - 0.0 - Cloudy 10 - - - -
19/12:00am 8.8 CALM 0 0 1023.4 - 0.0 - Partly cloudy 10 - - - -
 
Date/Time
CST
Temp

°C
Wind Pressure Rain
since 9am
mm
Weather Cloud Vis
km
Sea
Height
m
Swell
Dir
 
Speed
knots
Gust
knots
hPa Trend Height
m
Period
s
Dir
18/11:30pm 9.8 CALM 0 0 1023.5 - 0.0 - Cloudy 10 - - - -
18/11:00pm 10.6 ENE 1 4 1023.6 - 0.0 - Cloudy 10 - - - -
18/10:30pm 9.9 WSW 1 8 1023.7 - 0.0 - Cloudy 10 - - - -
18/10:00pm 9.5 CALM 0 0 1024.0 - 0.0 - Cloudy 10 - - - -

Other Formats:

Comma delimited format used in spreadsheet applications
http://www.bom.gov.au/fwo/IDS60701/IDS60701.95807.axf

JavaScript Object Notation format (JSON) in row-major order
http://www.bom.gov.au/fwo/IDS60701/IDS60701.95807.json